Time;durP1;ratioP1;P1;durP2;ratioP2;P2;SDS_P1;SDS_P2;PMS_P1;PMS_P2;Temp;Humidity;BMP_temperature;BMP_pressure;BME280_temperature;BME280_humidity;BME280_pressure;Samples;Min_cycle;Max_cycle;Signal;HPM_P1;HPM_P2
2023/05/03 00:01:35;;;;;;;;;;;;;;;6.91;100.00;100442.09;5034412;28;819;-64
2023/05/03 00:04:02;;;;;;;;;;;;;;;6.95;100.00;100442.16;5035000;28;916;-64
2023/05/03 00:06:30;;;;;;;;;;;;;;;6.98;100.00;100452.44;5035057;28;830;-64
2023/05/03 00:08:57;;;;;;;;;;;;;;;6.87;100.00;100448.66;5034741;28;1878;-66
2023/05/03 00:11:24;;;;;;;;;;;;;;;6.81;100.00;100450.91;5034676;28;1422;-66
2023/05/03 00:13:51;;;;;;;;;;;;;;;6.83;100.00;100454.09;5035088;28;842;-64
2023/05/03 00:16:19;;;;;;;;;;;;;;;6.89;100.00;100449.09;5034735;28;814;-66
2023/05/03 00:18:46;;;;;;;;;;;;;;;6.79;100.00;100469.72;5034656;28;917;-66
2023/05/03 00:21:13;;;;;;;;;;;;;;;6.55;100.00;100468.03;5034575;28;866;-64
2023/05/03 00:23:40;;;;;;;;;;;;;;;6.39;100.00;100453.53;5034828;28;814;-64
2023/05/03 00:26:07;;;;;;;;;;;;;;;6.44;100.00;100470.50;5034438;28;989;-64
2023/05/03 00:28:34;;;;;;;;;;;;;;;6.46;100.00;100467.41;5034406;28;1967;-64
2023/05/03 00:31:08;;;;;;;;;;;;;;;6.37;100.00;100464.88;5034478;28;839;-66
2023/05/03 00:33:35;;;;;;;;;;;;;;;6.27;100.00;100466.22;5034816;28;834;-65
2023/05/03 00:36:09;;;;;;;;;;;;;;;6.33;100.00;100461.25;5034647;28;872;-66
2023/05/03 00:38:36;;;;;;;;;;;;;;;6.27;100.00;100455.25;5034342;28;886;-64
2023/05/03 00:41:04;;;;;;;;;;;;;;;6.30;100.00;100446.28;5034303;28;799;-66
2023/05/03 00:43:31;;;;;;;;;;;;;;;6.27;100.00;100435.22;5034252;28;799;-66
2023/05/03 00:45:59;;;;;;;;;;;;;;;6.33;100.00;100437.31;5034154;28;909;-67
2023/05/03 00:48:27;;;;;;;;;;;;;;;6.36;100.00;100438.56;5034221;28;1957;-66
2023/05/03 00:50:55;;;;;;;;;;;;;;;6.42;100.00;100430.84;5034242;28;811;-67
2023/05/03 00:53:22;;;;;;;;;;;;;;;6.39;100.00;100428.81;5034111;28;814;-66
2023/05/03 00:55:52;;;;;;;;;;;;;;;6.50;100.00;100435.34;5033850;28;878;-66
2023/05/03 00:58:20;;;;;;;;;;;;;;;6.47;100.00;100425.88;5033980;28;826;-66
2023/05/03 01:00:47;;;;;;;;;;;;;;;6.44;100.00;100425.78;5033869;28;818;-66
2023/05/03 01:03:14;;;;;;;;;;;;;;;6.59;100.00;100426.88;5033858;28;885;-65
2023/05/03 01:06:08;;;;;;;;;;;;;;;6.75;100.00;100417.41;5033853;28;815;-64
2023/05/03 01:08:37;;;;;;;;;;;;;;;6.80;100.00;100412.78;5031473;28;1878;-66
2023/05/03 01:11:06;;;;;;;;;;;;;;;6.69;100.00;100416.13;5033341;28;1245;-66
2023/05/03 01:13:52;;;;;;;;;;;;;;;6.75;100.00;100414.69;5033693;28;870;-66
2023/05/03 01:16:40;;;;;;;;;;;;;;;6.83;100.00;100417.56;5033666;28;826;-66
2023/05/03 01:19:14;;;;;;;;;;;;;;;6.85;100.00;100413.31;5033618;28;1154;-64
2023/05/03 01:21:41;;;;;;;;;;;;;;;7.01;100.00;100415.97;5033738;28;818;-64
2023/05/03 01:24:12;;;;;;;;;;;;;;;7.09;100.00;100414.94;5033373;28;830;-64
2023/05/03 01:26:39;;;;;;;;;;;;;;;7.12;100.00;100413.41;5033454;28;865;-64
2023/05/03 01:29:06;;;;;;;;;;;;;;;7.04;100.00;100409.75;5033312;28;1967;-64
2023/05/03 01:31:45;;;;;;;;;;;;;;;6.83;100.00;100407.38;5033234;28;906;-64
2023/05/03 01:34:12;;;;;;;;;;;;;;;6.85;100.00;100402.31;5015503;28;1283;-64
2023/05/03 01:36:41;;;;;;;;;;;;;;;6.89;100.00;100400.44;5033391;28;810;-64
2023/05/03 01:39:13;;;;;;;;;;;;;;;6.98;100.00;100402.97;5033198;28;873;-65
2023/05/03 01:41:40;;;;;;;;;;;;;;;7.08;100.00;100405.13;5033117;28;798;-64
2023/05/03 01:44:08;;;;;;;;;;;;;;;7.15;100.00;100404.47;5033078;28;822;-64
2023/05/03 01:46:41;;;;;;;;;;;;;;;7.16;100.00;100404.06;5033001;28;832;-64
2023/05/03 01:49:08;;;;;;;;;;;;;;;7.16;100.00;100392.28;5032909;28;1882;-64
2023/05/03 01:51:35;;;;;;;;;;;;;;;7.20;100.00;100397.84;5032875;28;835;-65
2023/05/03 01:54:02;;;;;;;;;;;;;;;7.15;100.00;100401.72;5032835;28;841;-66
2023/05/03 01:56:29;;;;;;;;;;;;;;;7.12;100.00;100405.16;5032799;28;840;-67
2023/05/03 01:58:56;;;;;;;;;;;;;;;7.01;100.00;100398.69;5032792;28;838;-66
2023/05/03 02:01:23;;;;;;;;;;;;;;;6.90;100.00;100390.25;5032709;28;877;-66
2023/05/03 02:03:49;;;;;;;;;;;;;;;6.83;100.00;100401.06;5032823;28;826;-64
2023/05/03 02:06:17;;;;;;;;;;;;;;;6.87;100.00;100401.94;5032653;28;870;-64
2023/05/03 02:08:44;;;;;;;;;;;;;;;6.95;100.00;100400.94;5032533;28;1902;-65
2023/05/03 02:11:11;;;;;;;;;;;;;;;6.92;100.00;100409.91;5032254;28;1212;-64
2023/05/03 02:13:38;;;;;;;;;;;;;;;6.95;100.00;100398.19;5032500;28;803;-67
2023/05/03 02:16:05;;;;;;;;;;;;;;;6.98;100.00;100397.47;5014722;28;1283;-67
2023/05/03 02:18:32;;;;;;;;;;;;;;;6.99;100.00;100381.75;5031064;28;1194;-67
2023/05/03 02:20:59;;;;;;;;;;;;;;;6.98;100.00;100380.97;5032363;28;815;-66
2023/05/03 02:23:26;;;;;;;;;;;;;;;6.91;100.00;100376.16;5031682;28;881;-66
2023/05/03 02:25:54;;;;;;;;;;;;;;;6.84;100.00;100381.47;5032319;28;866;-66
2023/05/03 02:28:19;;;;;;;;;;;;;;;6.86;100.00;100372.88;5030794;28;1910;-64
2023/05/03 02:30:46;;;;;;;;;;;;;;;6.86;100.00;100368.19;5032217;28;886;-64
2023/05/03 02:33:13;;;;;;;;;;;;;;;6.94;100.00;100369.13;5032144;28;823;-64
2023/05/03 02:35:40;;;;;;;;;;;;;;;7.07;100.00;100362.28;5032374;28;913;-64
2023/05/03 02:38:06;;;;;;;;;;;;;;;7.19;100.00;100363.25;5032089;28;846;-67
2023/05/03 02:40:34;;;;;;;;;;;;;;;7.35;100.00;100362.00;5032144;28;998;-66
2023/05/03 02:43:02;;;;;;;;;;;;;;;7.49;100.00;100364.19;5032002;28;871;-64
2023/05/03 02:45:29;;;;;;;;;;;;;;;7.58;100.00;100377.69;5032151;28;846;-66
2023/05/03 02:47:57;;;;;;;;;;;;;;;7.54;100.00;100385.88;5032137;28;1886;-64
2023/05/03 02:50:24;;;;;;;;;;;;;;;7.42;100.00;100388.03;5031797;28;815;-65
2023/05/03 02:52:51;;;;;;;;;;;;;;;7.26;100.00;100390.91;5031720;28;930;-64
2023/05/03 02:55:18;;;;;;;;;;;;;;;7.00;100.00;100392.41;5031804;28;889;-66
2023/05/03 02:57:45;;;;;;;;;;;;;;;6.75;100.00;100406.44;5031743;28;917;-64
2023/05/03 03:00:14;;;;;;;;;;;;;;;6.63;100.00;100398.31;5031715;28;938;-64
2023/05/03 03:02:41;;;;;;;;;;;;;;;6.52;100.00;100408.31;5031877;28;905;-64
2023/05/03 03:05:08;;;;;;;;;;;;;;;6.59;100.00;100407.66;5032185;28;858;-66
2023/05/03 03:07:36;;;;;;;;;;;;;;;6.65;100.00;100415.25;5031840;28;1918;-64
2023/05/03 03:10:03;;;;;;;;;;;;;;;6.68;100.00;100402.75;5031629;28;1247;-64
2023/05/03 03:12:30;;;;;;;;;;;;;;;6.55;100.00;100380.13;5031708;28;905;-64
2023/05/03 03:14:56;;;;;;;;;;;;;;;6.96;100.00;100410.78;5031736;28;811;-64
2023/05/03 03:17:23;;;;;;;;;;;;;;;7.04;100.00;100403.44;5031802;28;855;-67
2023/05/03 03:19:50;;;;;;;;;;;;;;;7.19;100.00;100401.75;5031768;28;823;-65
2023/05/03 03:22:17;;;;;;;;;;;;;;;7.30;100.00;100400.00;5031715;28;799;-64
2023/05/03 03:24:44;;;;;;;;;;;;;;;7.39;100.00;100405.28;5031733;28;902;-65
2023/05/03 03:27:11;;;;;;;;;;;;;;;7.50;100.00;100406.25;5031576;28;1918;-64
2023/05/03 03:29:38;;;;;;;;;;;;;;;7.61;100.00;100398.97;5031816;28;904;-65
2023/05/03 03:32:05;;;;;;;;;;;;;;;7.73;100.00;100397.97;5031602;28;810;-64
2023/05/03 03:34:32;;;;;;;;;;;;;;;7.77;100.00;100405.13;5032264;28;807;-65
2023/05/03 03:36:59;;;;;;;;;;;;;;;7.78;100.00;100409.47;5035594;28;993;-66
2023/05/03 03:39:25;;;;;;;;;;;;;;;7.86;100.00;100412.34;5036219;28;740;-65
2023/05/03 03:41:52;;;;;;;;;;;;;;;7.95;100.00;100413.66;5035464;28;874;-67
2023/05/03 03:44:19;;;;;;;;;;;;;;;8.05;100.00;100422.47;5035455;28;1237;-65
2023/05/03 03:46:46;;;;;;;;;;;;;;;8.19;100.00;100422.66;5035851;28;767;-65
2023/05/03 03:49:13;;;;;;;;;;;;;;;8.40;100.00;100433.19;5035288;28;1885;-64
2023/05/03 03:51:40;;;;;;;;;;;;;;;8.65;100.00;100424.50;5035739;28;846;-64
2023/05/03 03:54:06;;;;;;;;;;;;;;;8.89;100.00;100425.97;5035961;28;853;-66
2023/05/03 03:56:33;;;;;;;;;;;;;;;9.09;100.00;100426.59;5035368;28;843;-66
2023/05/03 03:59:01;;;;;;;;;;;;;;;9.27;100.00;100432.31;5035004;28;795;-65
2023/05/03 04:01:27;;;;;;;;;;;;;;;9.37;100.00;100448.97;5035074;28;960;-66
2023/05/03 04:03:55;;;;;;;;;;;;;;;9.42;100.00;100447.84;5035113;28;898;-65
2023/05/03 04:06:21;;;;;;;;;;;;;;;9.48;100.00;100446.31;5035759;28;799;-65
2023/05/03 04:08:48;;;;;;;;;;;;;;;9.54;100.00;100444.81;5034774;28;1890;-65
2023/05/03 04:11:14;;;;;;;;;;;;;;;9.49;100.00;100445.13;5034571;28;1233;-66
2023/05/03 04:13:42;;;;;;;;;;;;;;;9.33;100.00;100444.59;5034723;28;882;-66
2023/05/03 04:16:08;;;;;;;;;;;;;;;9.19;100.00;100442.47;5034671;28;897;-67
2023/05/03 04:18:35;;;;;;;;;;;;;;;9.13;100.00;100444.78;5034610;28;901;-67
2023/05/03 04:21:02;;;;;;;;;;;;;;;9.14;100.00;100445.56;5033265;28;1395;-66
2023/05/03 04:23:30;;;;;;;;;;;;;;;9.26;100.00;100450.84;5034562;28;866;-67
2023/05/03 04:25:56;;;;;;;;;;;;;;;9.68;100.00;100446.91;5034469;28;885;-67
2023/05/03 04:28:24;;;;;;;;;;;;;;;10.17;100.00;100440.19;5034379;28;1977;-65
2023/05/03 04:30:52;;;;;;;;;;;;;;;10.55;100.00;100438.06;5034456;28;910;-65
2023/05/03 04:33:19;;;;;;;;;;;;;;;10.88;100.00;100436.28;5034310;28;838;-65
2023/05/03 04:35:49;;;;;;;;;;;;;;;11.21;100.00;100431.63;5034732;28;807;-65
2023/05/03 04:38:18;;;;;;;;;;;;;;;11.74;100.00;100430.13;5034313;28;807;-65
2023/05/03 04:40:45;;;;;;;;;;;;;;;12.21;100.00;100428.16;5034301;28;855;-66
2023/05/03 04:43:12;;;;;;;;;;;;;;;12.49;100.00;100432.06;5034185;28;909;-66
2023/05/03 04:45:39;;;;;;;;;;;;;;;12.70;100.00;100431.19;5033658;28;890;-65
2023/05/03 04:48:11;;;;;;;;;;;;;;;12.99;100.00;100418.75;5034130;28;1981;-65
2023/05/03 04:50:39;;;;;;;;;;;;;;;13.32;100.00;100430.53;5033993;28;972;-65
2023/05/03 04:53:07;;;;;;;;;;;;;;;13.78;100.00;100434.16;5034079;28;897;-65
2023/05/03 04:55:33;;;;;;;;;;;;;;;14.23;100.00;100434.16;5033947;28;810;-65
2023/05/03 04:58:01;;;;;;;;;;;;;;;14.59;100.00;100439.38;5034031;28;826;-63
2023/05/03 05:00:26;;;;;;;;;;;;;;;14.73;100.00;100442.00;5033838;28;834;-63
2023/05/03 05:02:53;;;;;;;;;;;;;;;14.80;100.00;100447.47;5034167;28;822;-64
2023/05/03 05:05:20;;;;;;;;;;;;;;;14.70;100.00;100453.94;5033750;28;811;-63
2023/05/03 05:07:47;;;;;;;;;;;;;;;14.76;100.00;100457.06;5033690;28;1894;-63
2023/05/03 05:10:13;;;;;;;;;;;;;;;14.68;100.00;100459.16;5033341;28;1270;-64
2023/05/03 05:12:40;;;;;;;;;;;;;;;14.58;100.00;100471.97;5033680;28;838;-65
2023/05/03 05:15:07;;;;;;;;;;;;;;;14.63;100.00;100473.50;5033616;28;858;-65
2023/05/03 05:17:34;;;;;;;;;;;;;;;14.72;100.00;100478.59;5033648;28;850;-65
2023/05/03 05:20:00;;;;;;;;;;;;;;;14.68;100.00;100481.44;5033373;28;815;-65
2023/05/03 05:22:27;;;;;;;;;;;;;;;14.60;100.00;100491.03;5033507;28;878;-65
2023/05/03 05:24:54;;;;;;;;;;;;;;;14.60;100.00;100491.03;5033486;28;897;-64
2023/05/03 05:27:20;;;;;;;;;;;;;;;14.69;100.00;100480.22;5033268;28;1979;-64
2023/05/03 05:29:47;;;;;;;;;;;;;;;14.98;100.00;100477.91;5033360;28;858;-65
2023/05/03 05:32:14;;;;;;;;;;;;;;;15.27;100.00;100475.50;5033337;28;826;-65
2023/05/03 05:34:41;;;;;;;;;;;;;;;15.58;100.00;100464.34;5033224;28;924;-64
2023/05/03 05:37:08;;;;;;;;;;;;;;;15.77;100.00;100470.44;5033232;28;842;-63
2023/05/03 05:39:34;;;;;;;;;;;;;;;15.84;100.00;100457.19;5033167;28;838;-65
2023/05/03 05:42:01;;;;;;;;;;;;;;;16.10;100.00;100443.63;5031763;28;1428;-66
2023/05/03 05:44:27;;;;;;;;;;;;;;;16.20;100.00;100439.88;5033085;28;799;-64
2023/05/03 05:46:53;;;;;;;;;;;;;;;16.13;100.00;100440.00;5033007;28;871;-65
2023/05/03 05:49:20;;;;;;;;;;;;;;;15.86;100.00;100440.84;5032936;28;1937;-64
2023/05/03 05:51:46;;;;;;;;;;;;;;;15.69;100.00;100453.03;5032988;28;823;-64
2023/05/03 05:54:13;;;;;;;;;;;;;;;15.64;99.70;100465.47;5032856;28;803;-65
2023/05/03 05:56:39;;;;;;;;;;;;;;;15.71;98.82;100462.56;5032958;28;826;-66
2023/05/03 05:59:06;;;;;;;;;;;;;;;15.57;98.05;100429.31;5031960;28;838;-65
2023/05/03 06:01:33;;;;;;;;;;;;;;;15.66;98.83;100456.66;5032894;28;827;-65
2023/05/03 06:04:05;;;;;;;;;;;;;;;15.57;98.45;100440.47;5032926;28;811;-65
2023/05/03 06:06:31;;;;;;;;;;;;;;;15.41;99.09;100448.69;5032619;28;865;-64
2023/05/03 06:08:58;;;;;;;;;;;;;;;15.22;98.57;100464.84;5032599;28;1899;-64
2023/05/03 06:11:25;;;;;;;;;;;;;;;15.10;99.77;100468.19;5032283;28;1285;-64
2023/05/03 06:13:51;;;;;;;;;;;;;;;15.15;100.00;100464.97;5032514;28;881;-64
2023/05/03 06:16:20;;;;;;;;;;;;;;;15.17;100.00;100470.91;5032494;28;842;-62
2023/05/03 06:18:47;;;;;;;;;;;;;;;15.08;100.00;100471.41;5032272;28;863;-64
2023/05/03 06:21:14;;;;;;;;;;;;;;;15.17;100.00;100484.81;5032437;28;835;-65
2023/05/03 06:23:41;;;;;;;;;;;;;;;15.22;100.00;100494.69;5032378;28;810;-65
2023/05/03 06:26:08;;;;;;;;;;;;;;;15.44;100.00;100487.63;5032252;28;901;-63
2023/05/03 06:28:35;;;;;;;;;;;;;;;15.73;100.00;100497.63;5032304;28;1914;-65
2023/05/03 06:31:01;;;;;;;;;;;;;;;15.84;100.00;100501.03;5032383;28;917;-65
2023/05/03 06:33:29;;;;;;;;;;;;;;;15.85;100.00;100517.34;5032197;28;858;-64
2023/05/03 06:35:57;;;;;;;;;;;;;;;15.79;100.00;100516.22;5032040;28;870;-63
2023/05/03 06:38:25;;;;;;;;;;;;;;;16.00;100.00;100520.69;5032106;28;929;-64
2023/05/03 06:40:51;;;;;;;;;;;;;;;16.39;100.00;100522.03;5032227;28;827;-64
2023/05/03 06:43:19;;;;;;;;;;;;;;;16.77;100.00;100524.53;5032015;28;897;-64
2023/05/03 06:45:47;;;;;;;;;;;;;;;17.08;98.54;100524.38;5031940;28;870;-63
2023/05/03 06:48:14;;;;;;;;;;;;;;;17.32;97.25;100525.84;5031863;28;1922;-65
2023/05/03 06:50:41;;;;;;;;;;;;;;;17.58;95.72;100547.66;5031767;28;1007;-64
2023/05/03 06:53:08;;;;;;;;;;;;;;;17.56;96.61;100542.53;5031984;28;877;-63
2023/05/03 06:55:35;;;;;;;;;;;;;;;17.52;95.32;100548.19;5031746;28;913;-63
2023/05/03 06:58:00;;;;;;;;;;;;;;;17.64;94.95;100540.34;5031717;28;933;-63
2023/05/03 07:00:28;;;;;;;;;;;;;;;17.83;90.90;100552.72;5014039;28;1311;-65
2023/05/03 07:02:58;;;;;;;;;;;;;;;18.22;88.00;100556.59;5031651;28;803;-66
2023/05/03 07:05:25;;;;;;;;;;;;;;;18.27;85.59;100565.28;5031770;28;822;-66
2023/05/03 07:07:52;;;;;;;;;;;;;;;18.12;84.91;100552.88;5031550;28;1886;-64
2023/05/03 07:10:18;;;;;;;;;;;;;;;18.08;85.74;100568.94;5031458;28;1217;-66
2023/05/03 07:12:45;;;;;;;;;;;;;;;18.11;85.38;100557.66;5013851;28;1180;-65
2023/05/03 07:18:16;;;;;;;;;;;;;;;18.04;84.30;100557.81;5031497;28;610;-66
2023/05/03 07:20:42;;;;;;;;;;;;;;;18.41;83.57;100560.53;5031474;28;819;-65
2023/05/03 07:23:09;;;;;;;;;;;;;;;18.63;81.13;100564.38;5031455;28;827;-66
2023/05/03 07:25:38;;;;;;;;;;;;;;;19.09;80.02;100562.34;5031471;28;850;-65
2023/05/03 07:28:04;;;;;;;;;;;;;;;19.61;78.29;100566.09;5031355;28;1969;-65
2023/05/03 07:30:31;;;;;;;;;;;;;;;20.01;76.86;100574.09;5031477;28;911;-65
2023/05/03 07:32:57;;;;;;;;;;;;;;;20.81;67.95;100573.09;5031366;28;804;-64
2023/05/03 07:35:25;;;;;;;;;;;;;;;21.09;62.75;100585.34;5031413;28;835;-65
2023/05/03 07:37:51;;;;;;;;;;;;;;;21.59;62.51;100571.47;5013371;28;1184;-66
2023/05/03 07:40:19;;;;;;;;;;;;;;;22.46;58.43;100574.50;5031306;28;843;-66
2023/05/03 07:42:46;;;;;;;;;;;;;;;23.21;54.46;100580.53;5031640;28;878;-65
2023/05/03 07:45:13;;;;;;;;;;;;;;;23.19;52.98;100579.41;5031247;28;791;-65
2023/05/03 07:47:40;;;;;;;;;;;;;;;23.26;49.19;100570.66;5031113;28;1886;-65
2023/05/03 07:50:08;;;;;;;;;;;;;;;23.26;45.96;100576.28;5031146;28;893;-65
2023/05/03 07:52:38;;;;;;;;;;;;;;;23.41;46.16;100560.28;5031200;28;822;-68
2023/05/03 07:55:05;;;;;;;;;;;;;;;23.88;45.17;100566.59;5031416;28;803;-67
2023/05/03 07:57:32;;;;;;;;;;;;;;;23.89;43.88;100570.97;5031189;28;905;-62
2023/05/03 07:59:59;;;;;;;;;;;;;;;23.51;43.33;100569.47;5031163;28;822;-63
2023/05/03 08:02:26;;;;;;;;;;;;;;;23.18;42.57;100555.31;5031131;28;835;-63
2023/05/03 08:04:53;;;;;;;;;;;;;;;23.38;41.82;100561.22;5031002;28;1247;-63
2023/05/03 08:07:20;;;;;;;;;;;;;;;23.30;41.29;100573.28;5031069;28;1952;-64
2023/05/03 08:09:47;;;;;;;;;;;;;;;22.91;42.25;100553.25;5031307;28;876;-67
2023/05/03 08:12:14;;;;;;;;;;;;;;;22.72;42.65;100556.06;5030963;28;1213;-66
2023/05/03 08:14:41;;;;;;;;;;;;;;;21.49;44.52;100564.25;5030958;28;917;-67
2023/05/03 08:17:08;;;;;;;;;;;;;;;21.56;45.25;100564.75;5030907;28;866;-65
2023/05/03 08:19:34;;;;;;;;;;;;;;;21.71;44.90;100559.34;5030896;28;838;-66
2023/05/03 08:22:02;;;;;;;;;;;;;;;21.30;46.84;100554.91;5033293;28;842;-66
2023/05/03 08:24:29;;;;;;;;;;;;;;;21.77;46.48;100551.13;5034586;28;874;-68
2023/05/03 08:26:56;;;;;;;;;;;;;;;21.13;46.38;100549.47;5034493;28;828;-67
2023/05/03 08:29:22;;;;;;;;;;;;;;;21.67;46.93;100550.28;5034411;28;1910;-67
2023/05/03 08:31:49;;;;;;;;;;;;;;;22.63;43.86;100551.19;5034450;28;854;-69
2023/05/03 08:34:16;;;;;;;;;;;;;;;22.65;40.74;100549.97;5034409;28;881;-69
2023/05/03 08:36:43;;;;;;;;;;;;;;;22.74;42.26;100541.50;5034401;28;886;-68
2023/05/03 08:39:10;;;;;;;;;;;;;;;23.14;41.43;100543.41;5034365;28;807;-68
2023/05/03 08:41:38;;;;;;;;;;;;;;;23.95;40.42;100531.59;5034235;28;858;-67
2023/05/03 08:44:07;;;;;;;;;;;;;;;24.10;38.83;100517.53;5034272;28;842;-65
2023/05/03 08:46:36;;;;;;;;;;;;;;;23.43;40.69;100515.44;5034123;28;850;-66
2023/05/03 08:49:03;;;;;;;;;;;;;;;22.36;40.59;100521.00;5034037;28;1906;-65
2023/05/03 08:51:30;;;;;;;;;;;;;;;21.26;43.22;100532.53;5034106;28;822;-66
2023/05/03 08:53:58;;;;;;;;;;;;;;;21.10;45.30;100533.53;5034103;28;905;-66
2023/05/03 08:56:29;;;;;;;;;;;;;;;21.26;44.96;100540.97;5034028;28;806;-67
2023/05/03 08:58:56;;;;;;;;;;;;;;;21.34;42.36;100528.22;5033929;28;878;-66
2023/05/03 09:01:22;;;;;;;;;;;;;;;21.32;43.68;100525.06;5033969;28;827;-67
2023/05/03 09:03:51;;;;;;;;;;;;;;;21.55;43.43;100509.75;5033876;28;917;-66
2023/05/03 09:06:24;;;;;;;;;;;;;;;21.21;43.31;100502.22;5033832;28;1165;-67
2023/05/03 09:08:51;;;;;;;;;;;;;;;21.63;43.42;100496.19;5033597;28;1953;-67
2023/05/03 09:11:26;;;;;;;;;;;;;;;22.12;40.86;100489.00;5033569;28;1415;-66
2023/05/03 09:26:05;;;;;;;;;;;;;;;21.31;43.95;100481.31;5033774;28;605;-65
2023/05/03 09:28:41;;;;;;;;;;;;;;;21.05;42.76;100475.09;5033608;28;1965;-66
2023/05/03 09:31:08;;;;;;;;;;;;;;;21.18;43.12;100478.59;5033372;28;818;-68
2023/05/03 09:33:34;;;;;;;;;;;;;;;21.58;41.50;100489.13;5033302;28;827;-65
2023/05/03 09:36:02;;;;;;;;;;;;;;;22.15;41.13;100480.41;5033186;28;1011;-67
2023/05/03 09:38:32;;;;;;;;;;;;;;;22.51;38.45;100476.09;5033271;28;889;-66
2023/05/03 10:09:30;;;;;;;;;;;;;;;22.01;37.90;100388.13;5785708;22;1763;-58
2023/05/03 10:11:58;;;;;;;;;;;;;;;21.94;36.93;100391.25;5032777;28;869;-58
2023/05/03 10:14:23;;;;;;;;;;;;;;;22.11;37.55;100395.31;5032586;28;1015;-57
2023/05/03 10:16:56;;;;;;;;;;;;;;;22.28;36.15;100403.50;5032528;28;1102;-58
2023/05/03 10:19:39;;;;;;;;;;;;;;;22.45;36.09;100409.56;5032633;28;908;-58
2023/05/03 10:22:07;;;;;;;;;;;;;;;22.41;34.13;100415.38;5032402;28;937;-57
2023/05/03 10:24:35;;;;;;;;;;;;;;;22.32;34.10;100421.00;5032418;28;1014;-57
2023/05/03 10:27:06;;;;;;;;;;;;;;;22.27;34.32;100421.63;5032396;28;814;-58
2023/05/03 10:29:33;;;;;;;;;;;;;;;21.86;33.91;100416.06;5032327;28;1937;-58
2023/05/03 10:32:04;;;;;;;;;;;;;;;21.86;35.69;100415.31;5032129;28;1148;-57
2023/05/03 10:34:34;;;;;;;;;;;;;;;21.54;33.00;100411.78;5032574;28;822;-57
2023/05/03 10:37:02;;;;;;;;;;;;;;;21.07;34.04;100393.13;5032093;28;946;-56
2023/05/03 10:39:29;;;;;;;;;;;;;;;21.04;34.23;100394.03;5032085;28;1039;-57
2023/05/03 10:41:58;;;;;;;;;;;;;;;21.47;34.87;100393.16;5032115;28;833;-58
2023/05/03 10:44:33;;;;;;;;;;;;;;;22.17;34.93;100407.53;5032013;28;846;-59
2023/05/03 10:47:21;;;;;;;;;;;;;;;22.64;35.56;100416.78;5032079;28;913;-58
2023/05/03 10:50:07;;;;;;;;;;;;;;;22.80;35.22;100421.28;5031879;28;972;-58
2023/05/03 10:52:37;;;;;;;;;;;;;;;22.26;35.01;100429.31;5021120;28;1886;-57
2023/05/03 10:55:11;;;;;;;;;;;;;;;22.03;34.10;100422.22;5032107;28;945;-57
2023/05/03 10:57:40;;;;;;;;;;;;;;;22.00;33.88;100434.41;5032054;28;865;-58
2023/05/03 11:00:12;;;;;;;;;;;;;;;22.09;33.70;100428.00;5031698;28;949;-58
2023/05/03 11:02:57;;;;;;;;;;;;;;;22.39;33.37;100426.34;5031817;28;1087;-57
2023/05/03 11:05:26;;;;;;;;;;;;;;;22.79;32.50;100425.38;5031791;28;819;-58
2023/05/03 11:08:15;;;;;;;;;;;;;;;22.84;31.96;100430.34;5031399;28;1886;-58
2023/05/03 11:10:56;;;;;;;;;;;;;;;23.17;32.92;100435.31;5031395;28;1379;-58
2023/05/03 11:13:23;;;;;;;;;;;;;;;23.39;31.64;100444.31;5032092;28;886;-58
2023/05/03 11:15:49;;;;;;;;;;;;;;;22.84;30.42;100455.72;5031754;28;878;-58
2023/05/03 11:18:16;;;;;;;;;;;;;;;23.10;31.76;100450.50;5030671;28;905;-58
2023/05/03 11:20:43;;;;;;;;;;;;;;;22.75;29.97;100455.75;5031887;28;941;-58
2023/05/03 11:23:11;;;;;;;;;;;;;;;22.35;29.52;100446.19;5031791;28;799;-58
2023/05/03 11:25:38;;;;;;;;;;;;;;;22.60;30.51;100449.97;5031808;28;823;-58
2023/05/03 11:28:04;;;;;;;;;;;;;;;22.57;30.70;100443.22;5031599;28;1914;-58
2023/05/03 11:30:32;;;;;;;;;;;;;;;22.64;29.31;100436.50;5031899;28;818;-58
2023/05/03 11:32:59;;;;;;;;;;;;;;;23.26;30.44;100435.28;5031639;28;929;-58
2023/05/03 11:35:27;;;;;;;;;;;;;;;23.38;30.03;100431.47;5031707;28;865;-58
2023/05/03 11:37:55;;;;;;;;;;;;;;;23.35;29.38;100437.28;5031308;28;889;-58
2023/05/03 11:40:22;;;;;;;;;;;;;;;23.58;29.65;100442.19;5031425;28;889;-58
2023/05/03 11:42:53;;;;;;;;;;;;;;;24.15;29.77;100434.97;5031404;28;802;-58
2023/05/03 11:45:21;;;;;;;;;;;;;;;23.93;29.59;100429.66;5031361;28;877;-58
2023/05/03 11:47:48;;;;;;;;;;;;;;;24.20;29.88;100423.81;5031437;28;1890;-58
2023/05/03 11:50:15;;;;;;;;;;;;;;;25.29;28.85;100410.41;5031317;28;1002;-58
2023/05/03 11:52:42;;;;;;;;;;;;;;;25.92;28.57;100404.38;5031212;28;886;-59
2023/05/03 11:55:10;;;;;;;;;;;;;;;25.62;26.81;100398.78;5031244;28;890;-58
2023/05/03 11:57:37;;;;;;;;;;;;;;;24.79;28.07;100411.06;5034588;28;870;-58
2023/05/03 12:00:13;;;;;;;;;;;;;;;23.64;28.98;100414.09;5035131;28;871;-58
2023/05/03 12:02:40;;;;;;;;;;;;;;;23.35;30.57;100409.88;5035055;28;989;-58
2023/05/03 12:05:08;;;;;;;;;;;;;;;22.76;29.94;100412.97;5035104;28;909;-58
2023/05/03 12:07:36;;;;;;;;;;;;;;;22.88;30.47;100411.25;5034779;28;1894;-57
2023/05/03 12:10:17;;;;;;;;;;;;;;;23.90;30.14;100414.47;5034847;28;1307;-58
2023/05/03 12:12:56;;;;;;;;;;;;;;;24.38;29.43;100393.84;5034923;28;869;-58
2023/05/03 12:15:29;;;;;;;;;;;;;;;24.67;27.58;100378.25;5034755;28;929;-58
2023/05/03 12:17:57;;;;;;;;;;;;;;;24.08;28.67;100365.53;5034910;28;802;-58
2023/05/03 12:20:24;;;;;;;;;;;;;;;23.32;29.67;100365.72;5034746;28;853;-58
2023/05/03 12:22:52;;;;;;;;;;;;;;;23.33;29.68;100389.03;5034655;28;949;-58
2023/05/03 12:25:18;;;;;;;;;;;;;;;22.53;29.60;100366.56;5034683;28;869;-58
2023/05/03 12:27:46;;;;;;;;;;;;;;;22.35;30.83;100377.84;5034631;28;1973;-58
2023/05/03 12:30:13;;;;;;;;;;;;;;;22.67;30.17;100386.88;5016879;28;909;-58
2023/05/03 12:32:40;;;;;;;;;;;;;;;22.14;30.13;100387.97;5034635;28;811;-58
2023/05/03 12:35:07;;;;;;;;;;;;;;;21.72;30.83;100394.16;5034456;28;818;-58
2023/05/03 12:37:35;;;;;;;;;;;;;;;21.72;30.83;100396.97;5016666;28;886;-58
2023/05/03 12:40:02;;;;;;;;;;;;;;;21.78;31.27;100397.94;5034383;28;943;-58
2023/05/03 12:42:29;;;;;;;;;;;;;;;21.75;31.71;100394.03;5034408;28;806;-58
2023/05/03 12:45:02;;;;;;;;;;;;;;;22.01;33.04;100408.59;5034363;28;934;-58
2023/05/03 12:47:29;;;;;;;;;;;;;;;22.28;32.62;100403.50;5034087;28;1890;-58
2023/05/03 12:49:56;;;;;;;;;;;;;;;22.41;31.28;100412.56;5034275;28;849;-58
2023/05/03 12:52:23;;;;;;;;;;;;;;;22.70;31.97;100414.09;5034014;28;1111;-58
2023/05/03 12:54:51;;;;;;;;;;;;;;;22.29;31.94;100413.50;5034125;28;863;-58
2023/05/03 12:57:18;;;;;;;;;;;;;;;21.87;32.88;100402.78;5034958;28;798;-56
2023/05/03 12:59:47;;;;;;;;;;;;;;;21.67;32.81;100404.00;5034584;28;807;-58
2023/05/03 13:02:14;;;;;;;;;;;;;;;21.82;32.06;100402.16;5034032;28;894;-58
2023/05/03 13:04:41;;;;;;;;;;;;;;;22.19;31.78;100395.78;5033890;28;917;-58
2023/05/03 13:07:13;;;;;;;;;;;;;;;21.89;32.72;100395.47;5033666;28;930;-56
2023/05/03 13:09:40;;;;;;;;;;;;;;;21.81;33.39;100397.00;5033559;28;1878;-58
2023/05/03 13:12:07;;;;;;;;;;;;;;;22.11;33.12;100386.88;5033743;28;903;-58
2023/05/03 13:14:34;;;;;;;;;;;;;;;22.12;33.44;100373.56;5033841;28;849;-58
2023/05/03 13:17:00;;;;;;;;;;;;;;;21.53;34.41;100356.75;5033759;28;846;-58
2023/05/03 13:19:27;;;;;;;;;;;;;;;20.75;35.22;100365.03;5033926;28;851;-58
2023/05/03 13:21:53;;;;;;;;;;;;;;;20.39;35.94;100377.53;5033585;28;862;-58
2023/05/03 13:24:20;;;;;;;;;;;;;;;20.16;36.39;100367.56;5033602;28;1037;-58
2023/05/03 13:26:47;;;;;;;;;;;;;;;20.13;36.09;100371.25;5015774;28;1243;-58
2023/05/03 13:29:13;;;;;;;;;;;;;;;19.93;36.12;100376.41;5033342;28;1910;-57
2023/05/03 13:31:41;;;;;;;;;;;;;;;19.82;36.22;100387.19;5033362;28;934;-58
2023/05/03 13:34:08;;;;;;;;;;;;;;;19.58;37.37;100384.72;5033419;28;866;-58
2023/05/03 13:36:34;;;;;;;;;;;;;;;19.36;38.37;100391.03;5033320;28;807;-57
2023/05/03 13:39:01;;;;;;;;;;;;;;;18.97;40.11;100381.81;5033204;28;862;-57
2023/05/03 13:41:40;;;;;;;;;;;;;;;18.64;41.66;100366.38;5033466;28;986;-58